KCSQ/CSQ METAR and TAF weather

Enter ICAO airport designator
Station Type Date Time Source
KCSQ METAR 2019/12/07 09:55 UTC NOAA

KCSQ 070955Z AUTO 18008KT 10SM CLR M05/M05 A3028 RMK AO2


Station Type Date Time Source
KCSQ Decoded METAR 2019/12/07 09:55 UTC NOAA

Creston, IA, United States (KCSQ) 41-01N 094-22W
Dec 07, 2019 - 04:55 AM EST / 2019.12.07 0955 UTC
Wind: from the S (180 degrees) at 9 MPH (8 KT):0
Visibility: 10 mile(s):0
Sky conditions: clear
Temperature: 23 F (-5 C)
Windchill: 14 F (-10 C):1
Dew Point: 23 F (-5 C)
Relative Humidity: 100%
Pressure (altimeter): 30.28 in. Hg (1025 hPa)
ob: KCSQ 070955Z AUTO 18008KT 10SM CLR M05/M05 A3028 RMK AO2
cycle: 10

Station Type Date Time Source
KCSQ TAF UTC NOAA

Error!

Example: see airport list